Time;durP1;ratioP1;P1;durP2;ratioP2;P2;SDS_P1;SDS_P2;PMS_P1;PMS_P2;Temp;Humidity;BMP_temperature;BMP_pressure;BME280_temperature;BME280_humidity;BME280_pressure;Samples;Min_cycle;Max_cycle;Signal;HPM_P1;HPM_P2
2022/07/30 00:00:30;;;;;;;0.75;0.70;;;;;;;32.75;29.82;98040.69;5064347;28;20106;-77
2022/07/30 00:02:56;;;;;;;1.23;0.90;;;;;;;32.85;29.80;98032.81;5068815;28;20028;-77
2022/07/30 00:05:23;;;;;;;1.67;0.80;;;;;;;33.11;28.83;98034.53;5063578;28;20150;-77
2022/07/30 00:07:49;;;;;;;0.52;0.52;;;;;;;33.31;28.98;98030.88;5069527;28;20024;-76
2022/07/30 00:10:15;;;;;;;0.85;0.77;;;;;;;33.40;28.78;98027.88;5070010;28;20040;-77
2022/07/30 00:12:41;;;;;;;1.38;0.70;;;;;;;33.41;28.77;98020.91;5068491;28;20036;-77
2022/07/30 00:15:08;;;;;;;0.90;0.90;;;;;;;32.93;29.63;98006.28;5070252;28;20029;-76
2022/07/30 00:17:34;;;;;;;0.70;0.60;;;;;;;33.06;29.29;98001.09;5069423;28;20508;-77
2022/07/30 00:20:00;;;;;;;2.13;0.70;;;;;;;33.37;28.59;98001.19;5070749;28;20036;-76
2022/07/30 00:22:26;;;;;;;1.42;0.70;;;;;;;33.27;28.72;98005.50;5071049;28;20539;-77
2022/07/30 00:24:52;;;;;;;1.20;0.93;;;;;;;33.35;28.56;98003.75;5068399;28;20028;-77
2022/07/30 00:27:19;;;;;;;0.70;0.60;;;;;;;33.42;29.07;97999.72;5065986;28;20471;-77
2022/07/30 00:29:45;;;;;;;1.85;0.50;;;;;;;33.42;28.75;97994.03;5069581;28;20103;-77
2022/07/30 00:32:11;;;;;;;0.50;0.50;;;;;;;33.72;28.43;97997.47;5072136;28;20051;-76
2022/07/30 00:34:37;;;;;;;1.63;1.25;;;;;;;34.06;27.99;98002.22;5070725;28;20425;-76
2022/07/30 00:37:03;;;;;;;0.60;0.60;;;;;;;34.20;27.77;98006.22;5070827;28;20048;-76
2022/07/30 00:39:29;;;;;;;0.73;0.73;;;;;;;34.28;27.92;98004.50;5070292;28;20384;-76
2022/07/30 00:41:56;;;;;;;1.25;0.85;;;;;;;34.29;27.91;98006.03;5070496;28;20169;-76
2022/07/30 00:44:23;;;;;;;2.47;0.60;;;;;;;34.29;27.62;97994.63;5088106;28;20126;-76
2022/07/30 00:46:49;;;;;;;2.90;0.80;;;;;;;33.84;28.46;97984.91;5054811;28;20037;-77
2022/07/30 00:49:15;;;;;;;2.45;0.70;;;;;;;32.26;30.89;97975.28;5067785;28;20029;-76
2022/07/30 00:51:41;;;;;;;0.68;0.68;;;;;;;32.75;30.67;97978.13;5069698;28;20503;-77
2022/07/30 00:54:07;;;;;;;0.75;0.70;;;;;;;33.31;29.22;97971.91;5073009;28;20052;-77
2022/07/30 00:56:33;;;;;;;0.80;0.73;;;;;;;33.53;28.75;97964.91;5071574;28;20111;-76
2022/07/30 00:59:00;;;;;;;0.52;0.52;;;;;;;33.62;28.96;97959.84;5051162;28;20033;-76
2022/07/30 01:01:26;;;;;;;1.95;0.70;;;;;;;33.97;28.00;97962.50;5070549;28;20028;-77
2022/07/30 01:03:52;;;;;;;0.50;0.50;;;;;;;34.28;27.68;97964.59;5073430;28;20024;-77
2022/07/30 01:06:18;;;;;;;0.73;0.70;;;;;;;34.49;27.61;97969.66;5073290;28;20117;-77
2022/07/30 01:08:44;;;;;;;0.60;0.60;;;;;;;34.30;27.81;97974.19;5071195;28;20036;-77
2022/07/30 01:11:10;;;;;;;0.88;0.88;;;;;;;34.48;27.62;97973.78;5072019;28;20035;-77
2022/07/30 01:13:36;;;;;;;0.80;0.70;;;;;;;34.63;27.29;97976.53;5072785;28;20119;-77
2022/07/30 01:16:03;;;;;;;0.93;0.93;;;;;;;34.68;27.46;97964.38;5073148;28;20036;-77
2022/07/30 01:21:40;;;;;;;0.68;0.60;;;;;;;34.36;27.26;97966.44;5013465;28;20445;-77
2022/07/30 01:24:34;;;;;;;1.20;0.75;;;;;;;34.36;27.93;97957.09;5012990;28;20091;-77
2022/07/30 01:27:01;;;;;;;2.90;0.75;;;;;;;34.53;27.29;97963.75;5045113;28;20040;-77
2022/07/30 01:29:30;;;;;;;0.70;0.70;;;;;;;34.60;27.22;97949.00;5071607;28;20040;-77
2022/07/30 01:31:58;;;;;;;3.08;0.60;;;;;;;34.64;26.80;97952.41;5072595;28;20397;-77
2022/07/30 01:34:28;;;;;;;1.60;0.60;;;;;;;34.23;27.79;97957.56;5066519;28;20501;-77
2022/07/30 01:36:57;;;;;;;0.40;0.40;;;;;;;33.91;28.13;97961.66;5078470;28;20392;-75
2022/07/30 01:39:25;;;;;;;2.20;0.60;;;;;;;33.98;27.89;97967.66;5070920;28;20033;-76
2022/07/30 01:41:53;;;;;;;1.33;0.60;;;;;;;33.13;29.16;97965.72;5070353;28;20036;-76
2022/07/30 01:44:20;;;;;;;0.60;0.60;;;;;;;32.38;30.13;97957.13;5072533;28;20033;-77
2022/07/30 01:46:48;;;;;;;2.53;0.60;;;;;;;32.49;30.55;97945.94;5073034;28;20124;-77
2022/07/30 01:49:16;;;;;;;0.60;0.60;;;;;;;33.00;29.45;97946.13;5074582;28;20032;-77
2022/07/30 01:51:46;;;;;;;0.80;0.80;;;;;;;32.56;29.96;97934.16;5075130;28;20025;-77
2022/07/30 01:54:13;;;;;;;0.85;0.85;;;;;;;32.60;29.89;97932.69;5061651;28;20042;-77
2022/07/30 01:56:42;;;;;;;1.38;0.52;;;;;;;32.72;29.99;97922.25;5074344;28;20024;-77
2022/07/30 01:59:09;;;;;;;0.80;0.80;;;;;;;32.86;29.86;97926.31;5074197;28;20051;-76
2022/07/30 02:01:35;;;;;;;0.60;0.60;;;;;;;33.23;29.54;97921.63;5056566;28;20043;-77
2022/07/30 02:04:03;;;;;;;2.83;1.02;;;;;;;33.23;29.54;97913.88;5074362;28;20035;-77
2022/07/30 02:06:40;;;;;;;0.80;0.80;;;;;;;32.97;29.65;97920.75;5074235;28;20037;-77
2022/07/30 02:09:07;;;;;;;0.80;0.80;;;;;;;33.43;28.74;97913.00;5072762;28;20031;-76
2022/07/30 02:14:38;;;;;;;1.40;0.80;;;;;;;33.46;28.96;97911.22;5070670;28;20047;-76
2022/07/30 02:17:06;;;;;;;0.70;0.70;;;;;;;33.23;29.59;97921.63;5068319;28;20040;-77
2022/07/30 02:19:38;;;;;;;0.75;0.75;;;;;;;33.24;29.79;97917.47;5066836;28;20476;-77
2022/07/30 02:22:10;;;;;;;0.75;0.75;;;;;;;33.37;29.40;97912.94;5053171;28;20398;-76
2022/07/30 02:24:37;;;;;;;0.80;0.80;;;;;;;32.85;29.85;97913.34;5060457;28;20025;-76
2022/07/30 02:27:15;;;;;;;0.70;0.70;;;;;;;32.85;30.07;97902.78;5074031;28;20040;-76
2022/07/30 02:29:44;;;;;;;0.80;0.80;;;;;;;32.88;30.27;97903.84;5068950;28;20040;-77
2022/07/30 02:32:13;;;;;;;0.65;0.65;;;;;;;32.95;29.92;97901.34;5053746;28;20033;-77
2022/07/30 02:34:42;;;;;;;0.70;0.70;;;;;;;33.49;29.04;97902.47;5069252;28;20036;-76
2022/07/30 02:37:11;;;;;;;0.77;0.77;;;;;;;33.97;28.33;97905.50;5073222;28;20395;-76
2022/07/30 02:39:38;;;;;;;0.80;0.80;;;;;;;33.79;28.94;97900.97;5073703;28;20380;-76
2022/07/30 02:42:06;;;;;;;0.80;0.80;;;;;;;33.68;28.99;97906.56;5074033;28;20464;-77
2022/07/30 02:44:34;;;;;;;0.80;0.80;;;;;;;33.89;28.49;97902.31;5073544;28;20039;-77
2022/07/30 02:47:03;;;;;;;2.00;0.80;;;;;;;32.94;30.12;97905.47;5071593;28;20119;-76
2022/07/30 02:49:32;;;;;;;0.80;0.80;;;;;;;32.95;30.39;97907.03;5070901;28;20109;-77
2022/07/30 02:52:00;;;;;;;3.20;0.93;;;;;;;33.56;29.15;97904.88;5055269;28;20033;-77
2022/07/30 02:54:27;;;;;;;0.82;0.82;;;;;;;33.65;28.75;97906.78;5072375;28;20040;-76
2022/07/30 02:56:56;;;;;;;0.75;0.75;;;;;;;33.22;29.71;97895.22;5073857;28;20082;-76
2022/07/30 02:59:24;;;;;;;2.22;0.80;;;;;;;32.57;30.25;97898.78;5073777;28;20119;-76
2022/07/30 03:01:52;;;;;;;0.80;0.80;;;;;;;32.81;30.06;97893.69;5073723;28;20029;-77
2022/07/30 03:04:22;;;;;;;2.45;1.25;;;;;;;32.83;30.41;97893.16;5067686;28;20032;-77
2022/07/30 03:06:49;;;;;;;7.18;1.25;;;;;;;32.31;31.03;97892.97;5058853;28;20035;-77
2022/07/30 03:09:16;;;;;;;1.23;1.13;;;;;;;31.91;31.67;97893.63;5054677;28;20068;-77
2022/07/30 03:11:43;;;;;;;1.40;1.15;;;;;;;31.90;31.96;97889.22;5072954;28;20032;-77
2022/07/30 03:14:10;;;;;;;1.15;1.05;;;;;;;31.98;32.00;97887.56;5073419;28;20037;-77
2022/07/30 03:16:37;;;;;;;0.90;0.90;;;;;;;32.07;31.54;97884.63;5073926;28;20043;-77
2022/07/30 03:19:08;;;;;;;1.70;0.90;;;;;;;32.72;30.87;97882.44;5073060;28;20501;-77
2022/07/30 03:21:36;;;;;;;1.00;1.00;;;;;;;33.14;30.02;97885.53;5072516;28;20047;-77
2022/07/30 03:24:06;;;;;;;1.35;1.20;;;;;;;33.15;29.91;97886.31;5073091;28;20035;-77
2022/07/30 03:26:34;;;;;;;1.23;1.13;;;;;;;32.49;31.06;97878.53;5059208;28;20056;-77
2022/07/30 03:29:01;;;;;;;3.10;1.00;;;;;;;32.84;30.33;97894.75;5060480;28;20052;-77
2022/07/30 03:31:28;;;;;;;1.15;1.15;;;;;;;33.41;29.67;97905.00;5070158;28;20142;-77
2022/07/30 03:33:55;;;;;;;2.35;1.00;;;;;;;33.83;29.07;97909.28;5070550;28;20492;-77
2022/07/30 03:36:22;;;;;;;3.80;1.23;;;;;;;34.01;28.52;97912.53;5070153;28;20440;-77
2022/07/30 03:38:49;;;;;;;3.08;0.95;;;;;;;33.98;28.72;97915.63;5064991;28;20052;-77
2022/07/30 03:41:16;;;;;;;1.30;1.20;;;;;;;33.97;28.42;97920.53;5052029;28;20032;-77
2022/07/30 03:43:43;;;;;;;1.50;1.38;;;;;;;33.96;28.53;97938.13;5069713;28;20032;-76
2022/07/30 03:46:10;;;;;;;1.50;1.40;;;;;;;33.97;28.79;97934.78;5065613;28;20566;-77
2022/07/30 03:48:38;;;;;;;2.10;1.20;;;;;;;34.21;28.01;97937.34;5067881;28;20032;-76
2022/07/30 03:51:06;;;;;;;1.25;1.15;;;;;;;34.00;28.93;97924.44;5072658;28;20025;-77
2022/07/30 03:53:33;;;;;;;2.55;1.13;;;;;;;33.55;29.48;97922.47;5052553;28;20030;-77
2022/07/30 03:56:00;;;;;;;1.90;1.20;;;;;;;33.59;29.46;97920.97;5065004;28;20052;-77
2022/07/30 03:58:26;;;;;;;1.33;1.23;;;;;;;33.61;29.48;97929.03;5072805;28;20366;-77
2022/07/30 04:00:52;;;;;;;1.30;1.20;;;;;;;33.40;29.50;97926.19;5072847;28;20497;-77
2022/07/30 04:03:26;;;;;;;1.30;1.20;;;;;;;33.38;29.76;97928.75;5073588;28;20102;-76
2022/07/30 04:05:52;;;;;;;1.55;1.45;;;;;;;32.97;30.20;97918.69;5069897;28;20032;-77
2022/07/30 04:08:19;;;;;;;1.20;1.10;;;;;;;33.08;30.39;97935.94;5077074;28;20033;-77
2022/07/30 04:10:46;;;;;;;2.17;1.30;;;;;;;33.56;29.60;97935.44;5058432;28;20036;-77
2022/07/30 04:13:12;;;;;;;3.40;1.40;;;;;;;34.08;28.62;97934.09;5076169;28;20381;-77
2022/07/30 04:15:50;;;;;;;1.75;1.40;;;;;;;34.58;27.96;97932.41;5058298;28;20067;-77
2022/07/30 04:18:17;;;;;;;1.45;1.00;;;;;;;34.97;27.55;97937.53;5076287;28;20053;-76
2022/07/30 04:20:46;;;;;;;1.40;1.30;;;;;;;34.62;28.00;97932.16;5076223;28;20025;-77
2022/07/30 04:23:13;;;;;;;1.40;1.30;;;;;;;34.03;29.08;97940.53;5076715;28;20034;-77
2022/07/30 04:25:40;;;;;;;1.08;1.00;;;;;;;34.10;28.96;97945.03;5076120;28;20468;-77
2022/07/30 04:28:08;;;;;;;1.83;1.38;;;;;;;33.90;29.41;97945.84;5076204;28;20031;-77
2022/07/30 04:30:34;;;;;;;1.42;1.33;;;;;;;33.91;29.55;97944.56;5076095;28;20057;-77
2022/07/30 04:33:01;;;;;;;1.40;1.30;;;;;;;34.27;29.00;97934.50;5075673;28;20480;-77
2022/07/30 04:35:32;;;;;;;1.17;1.08;;;;;;;34.45;28.96;97934.88;5076503;28;20408;-77
2022/07/30 04:37:59;;;;;;;3.67;1.92;;;;;;;33.95;29.28;97942.28;5076043;28;20078;-77
2022/07/30 04:40:25;;;;;;;3.20;1.60;;;;;;;33.44;30.37;97929.59;5076386;28;20115;-77
2022/07/30 04:42:51;;;;;;;1.58;1.10;;;;;;;33.54;30.31;97929.47;5071373;28;20105;-77
2022/07/30 04:45:19;;;;;;;1.58;1.48;;;;;;;33.61;30.19;97926.19;5075632;28;20451;-77
2022/07/30 04:47:45;;;;;;;1.25;1.10;;;;;;;32.99;31.13;97933.19;5068618;28;20423;-77
2022/07/30 04:50:13;;;;;;;1.35;1.25;;;;;;;33.07;31.11;97936.44;5070270;28;20037;-77
2022/07/30 04:52:40;;;;;;;1.52;1.42;;;;;;;33.41;30.86;97932.66;5075743;28;20056;-77
2022/07/30 04:55:08;;;;;;;1.20;1.10;;;;;;;34.06;29.93;97934.63;5075471;28;20066;-77
2022/07/30 04:57:39;;;;;;;1.20;1.10;;;;;;;34.61;29.21;97937.09;5076091;28;20035;-77
2022/07/30 05:00:06;;;;;;;2.90;1.55;;;;;;;34.67;28.95;97939.97;5074472;28;20043;-77
2022/07/30 05:02:35;;;;;;;1.55;1.45;;;;;;;34.31;29.43;97940.78;5073980;28;20017;-77
2022/07/30 05:05:03;;;;;;;1.50;1.20;;;;;;;34.05;30.29;97935.91;5060570;28;20037;-77
2022/07/30 05:07:30;;;;;;;1.65;1.42;;;;;;;33.58;30.88;97942.19;5075329;28;20036;-76
2022/07/30 05:09:56;;;;;;;1.50;1.40;;;;;;;33.72;30.94;97944.16;5075474;28;20031;-76
2022/07/30 05:12:32;;;;;;;1.58;1.42;;;;;;;33.81;30.40;97943.97;5075269;28;20103;-76
2022/07/30 05:14:58;;;;;;;2.08;1.48;;;;;;;33.74;31.08;97926.53;5075054;28;20058;-76
2022/07/30 05:17:24;;;;;;;2.00;1.38;;;;;;;33.43;31.45;97933.72;5074835;28;20052;-77
2022/07/30 05:19:50;;;;;;;1.45;1.35;;;;;;;33.79;30.96;97937.22;5067618;28;20257;-77
2022/07/30 05:22:16;;;;;;;1.35;1.25;;;;;;;34.25;30.21;97940.72;5073842;28;20048;-77
2022/07/30 05:24:42;;;;;;;2.35;1.65;;;;;;;34.03;30.48;97940.53;5050270;28;20021;-77
2022/07/30 05:27:08;;;;;;;3.65;1.30;;;;;;;34.12;30.74;97939.59;5056461;28;20072;-77
2022/07/30 05:29:34;;;;;;;1.70;1.50;;;;;;;34.36;30.18;97932.25;5075421;28;20041;-77
2022/07/30 05:32:00;;;;;;;1.63;1.42;;;;;;;34.53;29.83;97930.31;5083740;28;20111;-77
2022/07/30 05:34:27;;;;;;;2.38;1.40;;;;;;;33.48;31.79;97935.06;5058386;28;20044;-77
2022/07/30 05:36:53;;;;;;;2.55;1.58;;;;;;;33.19;32.76;97921.03;5073340;28;20047;-77
2022/07/30 05:39:19;;;;;;;1.38;1.27;;;;;;;32.81;33.11;97915.66;5056196;28;20044;-77
2022/07/30 05:41:45;;;;;;;1.55;1.45;;;;;;;33.57;32.00;97932.09;5063990;28;20036;-77
2022/07/30 05:44:11;;;;;;;1.70;1.35;;;;;;;34.31;30.66;97938.69;5074365;28;20031;-77
2022/07/30 05:46:37;;;;;;;3.30;1.40;;;;;;;34.64;30.45;97935.28;5073714;28;20489;-77
2022/07/30 05:49:05;;;;;;;1.55;1.10;;;;;;;35.15;30.01;97940.72;5070028;28;20032;-77
2022/07/30 05:51:31;;;;;;;1.70;1.50;;;;;;;35.60;29.25;97944.53;5074547;28;20396;-77
2022/07/30 05:53:57;;;;;;;1.60;1.50;;;;;;;35.92;28.60;97951.56;5090136;28;20040;-77
2022/07/30 05:56:23;;;;;;;2.58;1.38;;;;;;;35.97;28.56;97941.44;5074413;28;20033;-77
2022/07/30 05:58:49;;;;;;;3.72;1.50;;;;;;;36.06;28.47;97946.91;5074332;28;20442;-77
2022/07/30 06:01:15;;;;;;;1.45;1.30;;;;;;;36.04;28.39;97956.03;5074506;28;20029;-77
2022/07/30 06:03:41;;;;;;;2.10;1.58;;;;;;;35.97;28.60;97952.88;5072953;28;20071;-77
2022/07/30 06:06:07;;;;;;;1.55;1.45;;;;;;;34.69;30.42;97949.59;5066021;28;20120;-77
2022/07/30 06:08:34;;;;;;;3.63;1.65;;;;;;;33.25;33.58;97948.28;5054438;28;20025;-77
2022/07/30 06:11:00;;;;;;;4.22;1.70;;;;;;;33.51;33.23;97951.16;5058598;28;20025;-77
2022/07/30 06:13:27;;;;;;;2.00;1.90;;;;;;;32.78;33.89;97948.69;5074191;28;20085;-77
2022/07/30 06:15:53;;;;;;;2.22;2.03;;;;;;;32.31;34.97;97940.50;5039204;28;20021;-77
2022/07/30 06:18:19;;;;;;;2.00;1.90;;;;;;;31.85;35.94;97941.03;5053862;28;20045;-77
2022/07/30 06:20:46;;;;;;;2.15;1.80;;;;;;;32.23;35.44;97933.69;5064461;28;20048;-77
2022/07/30 06:23:12;;;;;;;2.45;1.75;;;;;;;32.90;34.04;97938.25;5074507;28;20047;-77
2022/07/30 06:25:38;;;;;;;2.50;2.30;;;;;;;32.73;34.16;97943.72;5073159;28;20028;-77
2022/07/30 06:28:04;;;;;;;2.92;1.80;;;;;;;32.89;34.31;97943.16;5073213;28;20032;-77
2022/07/30 06:30:30;;;;;;;2.00;1.75;;;;;;;32.51;34.67;97947.03;5073860;28;20032;-77
2022/07/30 06:32:56;;;;;;;2.75;2.05;;;;;;;33.34;33.26;97950.97;5073910;28;20032;-77
2022/07/30 06:35:22;;;;;;;3.13;2.28;;;;;;;33.65;32.93;97941.75;5069365;28;20044;-77
2022/07/30 06:37:48;;;;;;;1.80;1.70;;;;;;;33.74;32.76;97937.94;5068872;28;20040;-77
2022/07/30 06:40:14;;;;;;;1.73;1.63;;;;;;;34.19;31.87;97939.91;5066479;28;20055;-77
2022/07/30 06:42:40;;;;;;;2.05;1.88;;;;;;;33.93;32.28;97930.59;5079539;28;20037;-77
2022/07/30 06:45:07;;;;;;;2.20;2.00;;;;;;;33.76;32.62;97923.97;5068748;28;20040;-78
2022/07/30 06:47:34;;;;;;;1.70;1.60;;;;;;;33.85;32.34;97921.72;5068693;28;20028;-78
2022/07/30 06:50:01;;;;;;;4.05;1.55;;;;;;;34.17;31.89;97922.50;5081751;28;20123;-77
2022/07/30 06:52:27;;;;;;;3.60;2.13;;;;;;;34.36;32.13;97920.03;5070012;28;20029;-77
2022/07/30 06:54:54;;;;;;;2.00;1.80;;;;;;;34.56;31.60;97925.66;5071767;28;20024;-77
2022/07/30 06:57:20;;;;;;;2.78;1.95;;;;;;;34.54;31.36;97925.41;5073814;28;20099;-77
2022/07/30 06:59:46;;;;;;;2.25;2.15;;;;;;;34.84;31.17;97926.59;5073150;28;20086;-77
2022/07/30 07:02:12;;;;;;;2.40;1.90;;;;;;;34.67;31.30;97922.88;5070898;28;20538;-77
2022/07/30 07:04:38;;;;;;;2.08;1.77;;;;;;;33.76;32.84;97930.47;5069095;28;20536;-77
2022/07/30 07:07:04;;;;;;;2.03;1.92;;;;;;;33.92;32.80;97926.19;5073030;28;20538;-77
2022/07/30 07:09:30;;;;;;;2.95;2.45;;;;;;;33.57;33.54;97912.16;5073161;28;20099;-76
2022/07/30 07:11:56;;;;;;;1.92;1.83;;;;;;;33.14;34.21;97918.94;5055223;28;20075;-77
2022/07/30 07:14:22;;;;;;;2.28;2.08;;;;;;;33.78;33.22;97925.03;5055984;28;20056;-77
2022/07/30 07:16:49;;;;;;;2.95;2.50;;;;;;;34.27;31.98;97921.03;5073129;28;20464;-77
2022/07/30 07:19:15;;;;;;;2.80;2.38;;;;;;;34.18;32.34;97926.94;5075956;28;20041;-76
2022/07/30 07:21:41;;;;;;;2.70;2.50;;;;;;;34.33;32.21;97909.69;5071073;28;20060;-77
2022/07/30 07:24:07;;;;;;;2.65;2.45;;;;;;;34.15;32.62;97919.41;5070084;28;20036;-77
2022/07/30 07:26:34;;;;;;;2.88;2.67;;;;;;;33.99;32.78;97922.88;5068954;28;20112;-77
2022/07/30 07:29:00;;;;;;;2.47;2.28;;;;;;;33.97;32.85;97914.84;5075830;28;20089;-76
2022/07/30 07:31:27;;;;;;;2.63;2.42;;;;;;;34.10;32.34;97911.56;5070741;28;20439;-77
2022/07/30 07:33:53;;;;;;;3.38;2.50;;;;;;;33.47;33.68;97905.03;5057548;28;20506;-77
2022/07/30 07:36:23;;;;;;;2.38;2.17;;;;;;;33.46;33.81;97899.84;5071748;28;20043;-77
2022/07/30 07:38:49;;;;;;;4.77;2.10;;;;;;;33.86;33.22;97894.03;5053426;28;20037;-77
2022/07/30 07:41:16;;;;;;;2.95;2.38;;;;;;;33.16;34.28;97894.38;5071991;28;20108;-77
2022/07/30 07:43:42;;;;;;;2.42;2.22;;;;;;;33.25;34.03;97890.59;5052530;28;20037;-77
2022/07/30 07:46:08;;;;;;;2.58;2.38;;;;;;;33.76;33.20;97896.28;5072118;28;20059;-77
2022/07/30 07:48:34;;;;;;;3.10;2.55;;;;;;;33.77;32.91;97886.44;5077745;28;20059;-77
2022/07/30 07:51:00;;;;;;;2.22;2.03;;;;;;;33.64;33.83;97880.38;5069716;28;20602;-77
2022/07/30 07:53:26;;;;;;;2.25;2.10;;;;;;;33.54;33.91;97887.53;5081103;28;20024;-77
2022/07/30 07:55:52;;;;;;;3.15;2.47;;;;;;;33.47;33.86;97881.50;5072277;28;20063;-77
2022/07/30 07:58:18;;;;;;;2.30;2.10;;;;;;;33.66;33.47;97883.50;5049296;28;20503;-77
2022/07/30 08:00:44;;;;;;;2.78;2.58;;;;;;;34.10;32.80;97873.78;5071976;28;20028;-77
2022/07/30 08:03:10;;;;;;;2.60;2.40;;;;;;;34.49;32.37;97875.56;5072816;28;20420;-77
2022/07/30 08:05:36;;;;;;;2.35;2.10;;;;;;;34.78;31.86;97876.47;5070551;28;20111;-77
2022/07/30 08:08:03;;;;;;;2.17;2.08;;;;;;;34.32;32.39;97873.91;5064680;28;20374;-77
2022/07/30 08:10:29;;;;;;;2.30;2.20;;;;;;;34.53;32.10;97881.84;5060897;28;20537;-77
2022/07/30 08:12:55;;;;;;;1.70;1.60;;;;;;;34.96;31.41;97878.91;5071461;28;20029;-77
2022/07/30 08:15:21;;;;;;;1.80;1.70;;;;;;;35.38;30.77;97873.06;5072027;28;20438;-77
2022/07/30 08:17:47;;;;;;;1.77;1.50;;;;;;;35.68;30.58;97864.81;5072185;28;20043;-78
2022/07/30 08:20:17;;;;;;;1.45;1.35;;;;;;;35.51;30.99;97872.56;5069106;28;20044;-77
2022/07/30 08:22:43;;;;;;;1.67;1.58;;;;;;;34.53;32.46;97870.44;5066773;28;20074;-77
2022/07/30 08:25:10;;;;;;;2.15;1.77;;;;;;;34.76;32.60;97865.59;5068968;28;20075;-77
2022/07/30 08:27:36;;;;;;;1.85;1.70;;;;;;;34.07;33.62;97861.31;5073630;28;20029;-77
2022/07/30 08:30:07;;;;;;;2.03;1.70;;;;;;;34.04;34.07;97848.88;5068409;28;20036;-77
2022/07/30 08:32:34;;;;;;;1.70;1.60;;;;;;;34.56;32.94;97848.66;5068641;28;20049;-78
2022/07/30 08:35:00;;;;;;;2.70;2.10;;;;;;;34.66;33.14;97852.84;5069164;28;20059;-78
2022/07/30 08:37:26;;;;;;;1.88;1.77;;;;;;;35.05;32.47;97862.34;5065872;28;20032;-78
2022/07/30 08:39:52;;;;;;;1.80;1.70;;;;;;;35.47;31.71;97857.75;5066101;28;20025;-78
2022/07/30 08:42:19;;;;;;;1.90;1.73;;;;;;;35.78;31.49;97866.13;5070774;28;20504;-78
2022/07/30 08:44:45;;;;;;;1.75;1.65;;;;;;;35.29;32.07;97859.81;5072738;28;20033;-77
2022/07/30 08:47:17;;;;;;;1.80;1.70;;;;;;;35.26;32.54;97857.22;5070475;28;20086;-78
2022/07/30 08:49:47;;;;;;;2.05;1.90;;;;;;;34.55;33.04;97852.78;5069054;28;20037;-78
2022/07/30 08:52:14;;;;;;;1.88;1.70;;;;;;;34.68;32.97;97845.31;5071665;28;20377;-78
2022/07/30 08:54:40;;;;;;;1.80;1.70;;;;;;;34.60;33.32;97840.63;5070329;28;20024;-78
2022/07/30 08:57:06;;;;;;;2.05;1.85;;;;;;;34.54;32.80;97834.91;5067539;28;20104;-77
2022/07/30 08:59:33;;;;;;;2.00;1.80;;;;;;;34.14;33.72;97832.34;5073610;28;20041;-77
2022/07/30 09:01:59;;;;;;;1.75;1.65;;;;;;;35.04;32.34;97828.59;5070118;28;20056;-77
2022/07/30 09:04:25;;;;;;;1.80;1.70;;;;;;;35.49;31.50;97829.44;5072936;28;20032;-78
2022/07/30 09:06:51;;;;;;;1.83;1.73;;;;;;;35.71;31.97;97832.34;5072255;28;20056;-78
2022/07/30 09:09:17;;;;;;;2.30;1.73;;;;;;;35.81;31.02;97825.06;5074006;28;20036;-78
2022/07/30 09:11:44;;;;;;;1.35;1.25;;;;;;;35.80;31.06;97829.22;5068943;28;20045;-78
2022/07/30 09:14:12;;;;;;;1.65;1.55;;;;;;;34.97;32.24;97812.75;5088682;28;20381;-78
2022/07/30 09:16:39;;;;;;;2.47;1.90;;;;;;;34.59;32.97;97813.41;5071753;28;20040;-78
2022/07/30 09:19:17;;;;;;;1.30;1.20;;;;;;;35.70;31.30;97814.41;5070692;28;20512;-78
2022/07/30 09:21:55;;;;;;;2.15;1.67;;;;;;;36.00;30.00;97811.81;5069310;28;20479;-78
2022/07/30 09:24:22;;;;;;;1.55;1.30;;;;;;;36.29;29.56;97819.03;5069701;28;20036;-78
2022/07/30 09:27:04;;;;;;;1.38;1.30;;;;;;;36.20;30.79;97819.31;5073413;28;20021;-77
2022/07/30 09:29:31;;;;;;;1.25;1.20;;;;;;;36.65;30.20;97829.31;5071270;28;20040;-78
2022/07/30 09:32:05;;;;;;;1.50;1.40;;;;;;;36.89;28.95;97832.31;5074864;28;20063;-77
2022/07/30 09:34:33;;;;;;;1.52;1.42;;;;;;;37.08;29.53;97835.38;5069566;28;20458;-78
2022/07/30 09:37:01;;;;;;;1.45;1.35;;;;;;;37.15;30.40;97827.00;5074740;28;20036;-77
2022/07/30 09:39:32;;;;;;;1.30;1.20;;;;;;;37.56;29.39;97831.91;5057088;28;20040;-77
2022/07/30 09:41:59;;;;;;;1.25;1.10;;;;;;;37.39;29.24;97829.97;5074842;28;20489;-79
2022/07/30 09:44:28;;;;;;;1.40;1.30;;;;;;;37.61;30.19;97834.75;5074429;28;20028;-79
2022/07/30 09:46:54;;;;;;;1.20;1.10;;;;;;;37.89;28.23;97832.44;5069366;28;20054;-79
2022/07/30 09:49:23;;;;;;;1.17;1.13;;;;;;;37.66;30.04;97818.81;5065764;28;20032;-78
2022/07/30 09:51:50;;;;;;;1.08;0.98;;;;;;;37.43;28.31;97821.09;5074260;28;20037;-78
2022/07/30 09:54:16;;;;;;;1.48;1.20;;;;;;;38.35;28.21;97824.94;5074277;28;20040;-78
2022/07/30 09:56:44;;;;;;;1.05;1.00;;;;;;;39.09;26.11;97818.56;5074198;28;20033;-78
2022/07/30 09:59:28;;;;;;;0.90;0.90;;;;;;;39.69;26.00;97816.09;5074490;28;20040;-78
2022/07/30 10:01:55;;;;;;;1.05;1.02;;;;;;;40.07;25.23;97817.53;5072742;28;20033;-79
2022/07/30 10:04:26;;;;;;;1.77;1.40;;;;;;;38.12;27.47;97818.66;5075482;28;20047;-78
2022/07/30 10:06:52;;;;;;;1.00;1.00;;;;;;;38.41;25.64;97817.06;5070712;28;20032;-78
2022/07/30 10:09:34;;;;;;;1.00;1.00;;;;;;;38.04;27.92;97812.72;5071964;28;20037;-78
2022/07/30 10:12:03;;;;;;;0.90;0.90;;;;;;;37.30;30.53;97806.56;5072009;28;20119;-78
2022/07/30 10:14:32;;;;;;;1.00;1.00;;;;;;;37.41;29.73;97808.59;5072312;28;20024;-78
2022/07/30 10:16:59;;;;;;;1.00;1.00;;;;;;;38.53;28.13;97802.03;5069019;28;20107;-79
2022/07/30 10:19:26;;;;;;;1.38;1.20;;;;;;;37.70;28.85;97791.41;5072710;28;20040;-78
2022/07/30 10:21:56;;;;;;;1.30;1.20;;;;;;;37.64;29.34;97792.78;5074073;28;20098;-79
2022/07/30 10:24:23;;;;;;;1.67;1.10;;;;;;;38.27;28.16;97792.44;5074118;28;20032;-79
2022/07/30 10:26:51;;;;;;;1.13;1.13;;;;;;;37.82;28.81;97792.91;5076719;28;20020;-79
2022/07/30 10:29:18;;;;;;;2.10;1.10;;;;;;;37.86;28.94;97784.00;5073964;28;20442;-79
2022/07/30 10:31:49;;;;;;;0.95;0.90;;;;;;;38.85;27.21;97778.44;5055977;28;20395;-79
2022/07/30 10:34:17;;;;;;;1.00;1.00;;;;;;;39.17;28.25;97787.88;5071658;28;20036;-79
2022/07/30 10:36:54;;;;;;;1.02;0.95;;;;;;;39.65;27.38;97784.00;5068200;28;20162;-79
2022/07/30 10:39:26;;;;;;;0.95;0.95;;;;;;;40.32;26.61;97792.97;5073522;28;20058;-79
2022/07/30 10:42:25;;;;;;;1.25;1.10;;;;;;;38.52;25.89;97786.13;5073533;28;20109;-79
2022/07/30 10:44:54;;;;;;;2.28;0.80;;;;;;;38.29;29.28;97784.88;5051024;28;20060;-79
2022/07/30 10:47:23;;;;;;;1.38;1.27;;;;;;;38.29;28.23;97782.00;5069353;28;20025;-79
2022/07/30 10:50:15;;;;;;;1.50;1.40;;;;;;;38.83;24.88;97773.22;5050220;28;20028;-79
2022/07/30 10:52:53;;;;;;;2.65;1.20;;;;;;;38.70;26.77;97779.63;5068736;28;20086;-78
2022/07/30 10:55:30;;;;;;;1.17;1.17;;;;;;;39.02;26.13;97774.00;5066582;28;20108;-77
2022/07/30 10:57:58;;;;;;;1.23;1.23;;;;;;;38.00;28.26;97774.19;5073350;28;20040;-77
2022/07/30 11:00:25;;;;;;;1.52;1.42;;;;;;;36.57;29.81;97779.69;5063027;28;20033;-78
2022/07/30 11:03:22;;;;;;;1.50;1.40;;;;;;;37.17;26.34;97769.97;5069920;28;20074;-77
2022/07/30 11:05:50;;;;;;;1.50;1.40;;;;;;;37.37;26.84;97763.84;5070229;28;20590;-77
2022/07/30 11:08:32;;;;;;;1.02;1.02;;;;;;;38.34;26.27;97768.91;5088538;28;20024;-78
2022/07/30 11:10:58;;;;;;;1.65;1.38;;;;;;;39.01;27.70;97760.97;5073306;28;20029;-78
2022/07/30 11:13:59;;;;;;;1.20;1.10;;;;;;;38.57;26.08;97756.59;5072873;28;20427;-78
2022/07/30 11:16:34;;;;;;;1.15;1.10;;;;;;;39.08;26.43;97760.31;5073651;28;20040;-77
2022/07/30 11:19:07;;;;;;;1.05;0.80;;;;;;;38.95;26.76;97760.28;5072794;28;20181;-78
2022/07/30 11:21:34;;;;;;;0.90;0.90;;;;;;;38.90;26.19;97760.34;5068919;28;20366;-78
2022/07/30 11:24:02;;;;;;;1.13;1.13;;;;;;;39.18;26.91;97758.63;5055813;28;20025;-78
2022/07/30 11:26:49;;;;;;;1.27;1.20;;;;;;;38.75;25.02;97762.91;5053346;28;20057;-78
2022/07/30 11:29:37;;;;;;;1.05;1.05;;;;;;;38.42;26.09;97753.41;5053298;28;20029;-78
2022/07/30 11:32:28;;;;;;;1.00;1.00;;;;;;;38.26;24.84;97750.69;5053405;28;20061;-77
2022/07/30 11:35:21;;;;;;;1.13;1.13;;;;;;;38.27;28.95;97755.13;5067292;28;20048;-78
2022/07/30 11:38:07;;;;;;;1.02;1.00;;;;;;;39.62;25.59;97747.72;5073205;28;20050;-77
2022/07/30 11:40:45;;;;;;;1.17;1.08;;;;;;;39.26;26.61;97745.16;5055087;28;20571;-78
2022/07/30 11:43:40;;;;;;;2.13;1.10;;;;;;;39.05;28.78;97749.91;5072971;28;20077;-77
2022/07/30 11:46:12;;;;;;;1.50;1.40;;;;;;;37.14;30.46;97745.25;5069007;28;20049;-77